<?xml version="1.0" encoding="utf-8"?>
<gpx xmlns:xsi="http://www.w3.org/2001/XMLSchema-instance" xmlns:xsd="http://www.w3.org/2001/XMLSchema" version="1.1" creator="Shapelink.com" xmlns="http://www.topografix.com/GPX/1/1" xmlns:gpxtpx="http://www.garmin.com/xmlschemas/TrackPointExtension/v1">
  <metadata>
    <name>Gåing 0.75 km, 2012-05-17</name>
    <desc></desc>
    <author><name>Mikael Blom</name></author> 
    <time>2012-05-17T15:47:29Z</time>
  </metadata>
  <trk>
    <name>Gåing 0.75 km, 2012-05-17</name>
    <trkseg>
      <trkpt lat="59.9742938" lon="17.7349082">
        <ele>25.6123</ele>
        <time>2012-05-17T15:47:29Z</time>
      </trkpt>
      <trkpt lat="59.9743106" lon="17.7349912">
        <ele>26.5736</ele>
        <time>2012-05-17T15:47:33Z</time>
      </trkpt>
      <trkpt lat="59.9743392" lon="17.7350983">
        <ele>26.0929</ele>
        <time>2012-05-17T15:47:38Z</time>
      </trkpt>
      <trkpt lat="59.974345" lon="17.7352682">
        <ele>26.0929</ele>
        <time>2012-05-17T15:47:44Z</time>
      </trkpt>
      <trkpt lat="59.974358" lon="17.7353713">
        <ele>26.0929</ele>
        <time>2012-05-17T15:47:48Z</time>
      </trkpt>
      <trkpt lat="59.9743932" lon="17.7355928">
        <ele>26.0929</ele>
        <time>2012-05-17T15:47:56Z</time>
      </trkpt>
      <trkpt lat="59.974411" lon="17.7356976">
        <ele>26.5736</ele>
        <time>2012-05-17T15:48:00Z</time>
      </trkpt>
      <trkpt lat="59.9744522" lon="17.7358811">
        <ele>26.5736</ele>
        <time>2012-05-17T15:48:07Z</time>
      </trkpt>
      <trkpt lat="59.974458" lon="17.7359122">
        <ele>27.0543</ele>
        <time>2012-05-17T15:48:08Z</time>
      </trkpt>
      <trkpt lat="59.9745029" lon="17.7360897">
        <ele>27.5349</ele>
        <time>2012-05-17T15:48:15Z</time>
      </trkpt>
      <trkpt lat="59.9745406" lon="17.7361821">
        <ele>28.4962</ele>
        <time>2012-05-17T15:48:19Z</time>
      </trkpt>
      <trkpt lat="59.9745791" lon="17.7362924">
        <ele>31.3801</ele>
        <time>2012-05-17T15:48:23Z</time>
      </trkpt>
      <trkpt lat="59.9746432" lon="17.7365102">
        <ele>32.8223</ele>
        <time>2012-05-17T15:48:31Z</time>
      </trkpt>
      <trkpt lat="59.9746909" lon="17.7366639">
        <ele>34.2642</ele>
        <time>2012-05-17T15:48:37Z</time>
      </trkpt>
      <trkpt lat="59.9747283" lon="17.7367912">
        <ele>34.2642</ele>
        <time>2012-05-17T15:48:42Z</time>
      </trkpt>
      <trkpt lat="59.9747998" lon="17.7370134">
        <ele>34.7449</ele>
        <time>2012-05-17T15:48:51Z</time>
      </trkpt>
      <trkpt lat="59.9748655" lon="17.7371714">
        <ele>34.2642</ele>
        <time>2012-05-17T15:48:58Z</time>
      </trkpt>
      <trkpt lat="59.974923" lon="17.7373333">
        <ele>32.3416</ele>
        <time>2012-05-17T15:49:05Z</time>
      </trkpt>
      <trkpt lat="59.9749717" lon="17.7374527">
        <ele>31.8607</ele>
        <time>2012-05-17T15:49:10Z</time>
      </trkpt>
      <trkpt lat="59.9749815" lon="17.7374708">
        <ele>31.3801</ele>
        <time>2012-05-17T15:49:11Z</time>
      </trkpt>
      <trkpt lat="59.9750551" lon="17.737609">
        <ele>29.9381</ele>
        <time>2012-05-17T15:49:19Z</time>
      </trkpt>
      <trkpt lat="59.9751328" lon="17.7377389">
        <ele>28.9769</ele>
        <time>2012-05-17T15:49:26Z</time>
      </trkpt>
      <trkpt lat="59.9752447" lon="17.7379389">
        <ele>28.4962</ele>
        <time>2012-05-17T15:49:36Z</time>
      </trkpt>
      <trkpt lat="59.9753188" lon="17.7380707">
        <ele>28.9769</ele>
        <time>2012-05-17T15:49:43Z</time>
      </trkpt>
      <trkpt lat="59.9754209" lon="17.7382593">
        <ele>28.0155</ele>
        <time>2012-05-17T15:49:52Z</time>
      </trkpt>
      <trkpt lat="59.9754898" lon="17.7383966">
        <ele>26.0929</ele>
        <time>2012-05-17T15:49:59Z</time>
      </trkpt>
      <trkpt lat="59.9755854" lon="17.7385748">
        <ele>24.651</ele>
        <time>2012-05-17T15:50:08Z</time>
      </trkpt>
      <trkpt lat="59.975627" lon="17.7386808">
        <ele>24.651</ele>
        <time>2012-05-17T15:50:13Z</time>
      </trkpt>
      <trkpt lat="59.9756574" lon="17.7387309">
        <ele>24.1703</ele>
        <time>2012-05-17T15:50:16Z</time>
      </trkpt>
      <trkpt lat="59.9757211" lon="17.7388606">
        <ele>24.1703</ele>
        <time>2012-05-17T15:50:22Z</time>
      </trkpt>
      <trkpt lat="59.9757888" lon="17.7389823">
        <ele>24.651</ele>
        <time>2012-05-17T15:50:28Z</time>
      </trkpt>
      <trkpt lat="59.9758159" lon="17.7390218">
        <ele>25.1317</ele>
        <time>2012-05-17T15:50:30Z</time>
      </trkpt>
      <trkpt lat="59.9758926" lon="17.7391355">
        <ele>25.6123</ele>
        <time>2012-05-17T15:50:36Z</time>
      </trkpt>
      <trkpt lat="59.9759807" lon="17.7392729">
        <ele>26.5736</ele>
        <time>2012-05-17T15:50:43Z</time>
      </trkpt>
      <trkpt lat="59.9760036" lon="17.7393171">
        <ele>26.5736</ele>
        <time>2012-05-17T15:50:45Z</time>
      </trkpt>
      <trkpt lat="59.976087" lon="17.739478">
        <ele>27.0543</ele>
        <time>2012-05-17T15:50:53Z</time>
      </trkpt>
      <trkpt lat="59.976179" lon="17.7396396">
        <ele>28.0155</ele>
        <time>2012-05-17T15:51:02Z</time>
      </trkpt>
      <trkpt lat="59.9762619" lon="17.7397447">
        <ele>27.0543</ele>
        <time>2012-05-17T15:51:09Z</time>
      </trkpt>
      <trkpt lat="59.9762723" lon="17.7397535">
        <ele>26.5736</ele>
        <time>2012-05-17T15:51:10Z</time>
      </trkpt>
      <trkpt lat="59.9763696" lon="17.7397046">
        <ele>27.0543</ele>
        <time>2012-05-17T15:51:18Z</time>
      </trkpt>
      <trkpt lat="59.9764107" lon="17.7395875">
        <ele>28.9769</ele>
        <time>2012-05-17T15:51:23Z</time>
      </trkpt>
      <trkpt lat="59.9764273" lon="17.7395376">
        <ele>29.4575</ele>
        <time>2012-05-17T15:51:25Z</time>
      </trkpt>
      <trkpt lat="59.9764942" lon="17.7394455">
        <ele>28.9769</ele>
        <time>2012-05-17T15:51:31Z</time>
      </trkpt>
      <trkpt lat="59.9765304" lon="17.7394328">
        <ele>28.4962</ele>
        <time>2012-05-17T15:51:33Z</time>
      </trkpt>
      <trkpt lat="59.9766366" lon="17.7393603">
        <ele>28.0155</ele>
        <time>2012-05-17T15:51:41Z</time>
      </trkpt>
      <trkpt lat="59.9767426" lon="17.7393155">
        <ele>28.0155</ele>
        <time>2012-05-17T15:51:48Z</time>
      </trkpt>
      <trkpt lat="59.9768719" lon="17.7392702">
        <ele>28.0155</ele>
        <time>2012-05-17T15:51:57Z</time>
      </trkpt>
      <trkpt lat="59.9770044" lon="17.7392294">
        <ele>28.4962</ele>
        <time>2012-05-17T15:52:07Z</time>
      </trkpt>
      <trkpt lat="59.977104" lon="17.7391932">
        <ele>27.5349</ele>
        <time>2012-05-17T15:52:14Z</time>
      </trkpt>
      <trkpt lat="59.9772241" lon="17.7391125">
        <ele>28.0155</ele>
        <time>2012-05-17T15:52:23Z</time>
      </trkpt>
      <trkpt lat="59.9773515" lon="17.7390242">
        <ele>29.4575</ele>
        <time>2012-05-17T15:52:32Z</time>
      </trkpt>
      <trkpt lat="59.9773769" lon="17.7390135">
        <ele>29.4575</ele>
        <time>2012-05-17T15:52:34Z</time>
      </trkpt>
      <trkpt lat="59.9774753" lon="17.738963">
        <ele>30.8995</ele>
        <time>2012-05-17T15:52:40Z</time>
      </trkpt>
      <trkpt lat="59.9775823" lon="17.7389466">
        <ele>30.8995</ele>
        <time>2012-05-17T15:52:48Z</time>
      </trkpt>
      <trkpt lat="59.9776719" lon="17.73897">
        <ele>31.8607</ele>
        <time>2012-05-17T15:52:55Z</time>
      </trkpt>
      <trkpt lat="59.9777731" lon="17.7389994">
        <ele>32.3416</ele>
        <time>2012-05-17T15:53:02Z</time>
      </trkpt>
      <trkpt lat="59.9778528" lon="17.7390345">
        <ele>33.3029</ele>
        <time>2012-05-17T15:53:08Z</time>
      </trkpt>
      <trkpt lat="59.977947" lon="17.7390887">
        <ele>33.3029</ele>
        <time>2012-05-17T15:53:15Z</time>
      </trkpt>
      <trkpt lat="59.9780031" lon="17.7391382">
        <ele>32.3416</ele>
        <time>2012-05-17T15:53:20Z</time>
      </trkpt>
      <trkpt lat="59.978063" lon="17.7391624">
        <ele>31.8607</ele>
        <time>2012-05-17T15:53:24Z</time>
      </trkpt>
      <trkpt lat="59.9781501" lon="17.7391829">
        <ele>30.8995</ele>
        <time>2012-05-17T15:53:30Z</time>
      </trkpt>
      <trkpt lat="59.9782414" lon="17.7391951">
        <ele>30.4188</ele>
        <time>2012-05-17T15:53:36Z</time>
      </trkpt>
      <trkpt lat="59.9783438" lon="17.7392108">
        <ele>31.8607</ele>
        <time>2012-05-17T15:53:43Z</time>
      </trkpt>
      <trkpt lat="59.9784187" lon="17.7392243">
        <ele>31.3801</ele>
        <time>2012-05-17T15:53:49Z</time>
      </trkpt>
      <trkpt lat="59.9784429" lon="17.7392267">
        <ele>31.3801</ele>
        <time>2012-05-17T15:53:51Z</time>
      </trkpt>
      <trkpt lat="59.978562" lon="17.7392511">
        <ele>30.8995</ele>
        <time>2012-05-17T15:54:00Z</time>
      </trkpt>
      <trkpt lat="59.9786378" lon="17.7392683">
        <ele>30.4188</ele>
        <time>2012-05-17T15:54:06Z</time>
      </trkpt>
      <trkpt lat="59.9787356" lon="17.7393098">
        <ele>29.9381</ele>
        <time>2012-05-17T15:54:12Z</time>
      </trkpt>
      <trkpt lat="59.9788017" lon="17.7393522">
        <ele>28.9769</ele>
        <time>2012-05-17T15:54:17Z</time>
      </trkpt>
      <trkpt lat="59.9788563" lon="17.7394186">
        <ele>28.4962</ele>
        <time>2012-05-17T15:54:22Z</time>
      </trkpt>
      <trkpt lat="59.978876" lon="17.7394515">
        <ele>28.9769</ele>
        <time>2012-05-17T15:54:24Z</time>
      </trkpt>
      <trkpt lat="59.9788825" lon="17.7394396">
        <ele>32.3416</ele>
        <time>2012-05-17T15:54:28Z</time>
      </trkpt>
      <trkpt lat="59.9788804" lon="17.7393751">
        <ele>33.3029</ele>
        <time>2012-05-17T15:54:31Z</time>
      </trkpt>
      <trkpt lat="59.9788914" lon="17.739334">
        <ele>33.7834</ele>
        <time>2012-05-17T15:54:37Z</time>
      </trkpt>
      <trkpt lat="59.9788924" lon="17.7393011">
        <ele>35.2255</ele>
        <time>2012-05-17T15:54:45Z</time>
      </trkpt>
      <trkpt lat="59.9788966" lon="17.7392875">
        <ele>36.1868</ele>
        <time>2012-05-17T15:54:52Z</time>
      </trkpt>
      <trkpt lat="59.9788988" lon="17.739279">
        <ele>37.6287</ele>
        <time>2012-05-17T15:54:59Z</time>
      </trkpt>
      <trkpt lat="59.9788941" lon="17.7392662">
        <ele>38.1094</ele>
        <time>2012-05-17T15:55:06Z</time>
      </trkpt>
      <trkpt lat="59.9789058" lon="17.7392596">
        <ele>40.0321</ele>
        <time>2012-05-17T15:55:25Z</time>
      </trkpt>
      <trkpt lat="59.978906" lon="17.7392735">
        <ele>40.0321</ele>
        <time>2012-05-17T15:55:41Z</time>
      </trkpt>
      <trkpt lat="59.9788977" lon="17.7392833">
        <ele>39.0707</ele>
        <time>2012-05-17T15:55:52Z</time>
      </trkpt>
      <trkpt lat="59.9788918" lon="17.7392775">
        <ele>39.0707</ele>
        <time>2012-05-17T15:56:00Z</time>
      </trkpt>
      <trkpt lat="59.9788913" lon="17.739275">
        <ele>38.5901</ele>
        <time>2012-05-17T15:56:05Z</time>
      </trkpt>
      <trkpt lat="59.9789048" lon="17.7392927">
        <ele>37.1481</ele>
        <time>2012-05-17T15:56:25Z</time>
      </trkpt>
      <trkpt lat="59.9789199" lon="17.7392605">
        <ele>39.0707</ele>
        <time>2012-05-17T15:56:37Z</time>
      </trkpt>
      <trkpt lat="59.9789208" lon="17.7392594">
        <ele>39.5513</ele>
        <time>2012-05-17T15:56:50Z</time>
      </trkpt>
      <trkpt lat="59.9789232" lon="17.7392413">
        <ele>40.5128</ele>
        <time>2012-05-17T15:57:05Z</time>
      </trkpt>
      <trkpt lat="59.9789238" lon="17.7392486">
        <ele>40.9934</ele>
        <time>2012-05-17T15:57:12Z</time>
      </trkpt>
      <trkpt lat="59.9789208" lon="17.7392752">
        <ele>40.5128</ele>
        <time>2012-05-17T15:57:22Z</time>
      </trkpt>
      <trkpt lat="59.9789164" lon="17.7393217">
        <ele>38.1094</ele>
        <time>2012-05-17T15:57:35Z</time>
      </trkpt>
      <trkpt lat="59.9789095" lon="17.7393222">
        <ele>37.1481</ele>
        <time>2012-05-17T15:57:43Z</time>
      </trkpt>
      <trkpt lat="59.9789107" lon="17.7393238">
        <ele>38.1094</ele>
        <time>2012-05-17T15:57:49Z</time>
      </trkpt>
      <trkpt lat="59.978908" lon="17.739316">
        <ele>37.6287</ele>
        <time>2012-05-17T15:57:55Z</time>
      </trkpt>
      <trkpt lat="59.9789071" lon="17.7393164">
        <ele>38.1094</ele>
        <time>2012-05-17T15:58:01Z</time>
      </trkpt>
      <trkpt lat="59.9789165" lon="17.7393143">
        <ele>38.5901</ele>
        <time>2012-05-17T15:58:09Z</time>
      </trkpt>
      <trkpt lat="59.97892" lon="17.7393279">
        <ele>39.5513</ele>
        <time>2012-05-17T15:58:20Z</time>
      </trkpt>
      <trkpt lat="59.9789229" lon="17.7393564">
        <ele>40.5128</ele>
        <time>2012-05-17T15:58:31Z</time>
      </trkpt>
      <trkpt lat="59.9789198" lon="17.7393564">
        <ele>40.0321</ele>
        <time>2012-05-17T15:58:39Z</time>
      </trkpt>
      <trkpt lat="59.9789117" lon="17.7393327">
        <ele>40.5128</ele>
        <time>2012-05-17T15:58:50Z</time>
      </trkpt>
      <trkpt lat="59.9789107" lon="17.7393187">
        <ele>40.9934</ele>
        <time>2012-05-17T15:58:57Z</time>
      </trkpt>
      <trkpt lat="59.9789142" lon="17.7393155">
        <ele>40.5128</ele>
        <time>2012-05-17T15:59:06Z</time>
      </trkpt>
      <trkpt lat="59.9789139" lon="17.7393486">
        <ele>40.0321</ele>
        <time>2012-05-17T15:59:20Z</time>
      </trkpt>
      <trkpt lat="59.9789374" lon="17.7394548">
        <ele>39.0707</ele>
        <time>2012-05-17T15:59:25Z</time>
      </trkpt>
      <trkpt lat="59.9789807" lon="17.7395595">
        <ele>39.0707</ele>
        <time>2012-05-17T15:59:30Z</time>
      </trkpt>
      <trkpt lat="59.9789868" lon="17.7396069">
        <ele>38.5901</ele>
        <time>2012-05-17T15:59:32Z</time>
      </trkpt>
      <trkpt lat="59.9789531" lon="17.7397609">
        <ele>38.1094</ele>
        <time>2012-05-17T15:59:38Z</time>
      </trkpt>
      <trkpt lat="59.978944" lon="17.7398412">
        <ele>37.6287</ele>
        <time>2012-05-17T15:59:42Z</time>
      </trkpt>
    </trkseg>
  </trk>
</gpx>